sensor_id;sensor_type;location;lat;lon;timestamp;P1;durP1;ratioP1;P2;durP2;ratioP2
45274;SDS011;31019;43.780;25.948;2023-09-08T00:00:45;50.60;;;48.20;;
45274;SDS011;31019;43.780;25.948;2023-09-08T00:03:13;41.67;;;39.55;;
45274;SDS011;31019;43.780;25.948;2023-09-08T00:05:39;39.97;;;37.83;;
45274;SDS011;31019;43.780;25.948;2023-09-08T00:08:10;49.28;;;46.78;;
45274;SDS011;31019;43.780;25.948;2023-09-08T00:10:36;46.65;;;44.35;;
45274;SDS011;31019;43.780;25.948;2023-09-08T00:13:03;40.45;;;38.35;;
45274;SDS011;31019;43.780;25.948;2023-09-08T00:15:30;42.15;;;39.95;;
45274;SDS011;31019;43.780;25.948;2023-09-08T00:18:02;44.90;;;42.70;;
45274;SDS011;31019;43.780;25.948;2023-09-08T00:20:32;45.47;;;43.15;;
45274;SDS011;31019;43.780;25.948;2023-09-08T00:22:59;39.05;;;36.95;;
45274;SDS011;31019;43.780;25.948;2023-09-08T00:25:31;47.20;;;44.40;;
45274;SDS011;31019;43.780;25.948;2023-09-08T00:28:01;39.15;;;37.05;;
45274;SDS011;31019;43.780;25.948;2023-09-08T00:30:28;34.25;;;32.25;;
45274;SDS011;31019;43.780;25.948;2023-09-08T00:32:55;36.05;;;33.95;;
45274;SDS011;31019;43.780;25.948;2023-09-08T00:35:22;45.75;;;43.45;;
45274;SDS011;31019;43.780;25.948;2023-09-08T00:37:54;40.08;;;37.97;;
45274;SDS011;31019;43.780;25.948;2023-09-08T00:40:21;42.60;;;40.40;;
45274;SDS011;31019;43.780;25.948;2023-09-08T00:42:49;42.85;;;40.65;;
45274;SDS011;31019;43.780;25.948;2023-09-08T00:45:21;38.03;;;35.92;;
45274;SDS011;31019;43.780;25.948;2023-09-08T00:47:52;45.70;;;43.20;;
45274;SDS011;31019;43.780;25.948;2023-09-08T00:50:19;45.05;;;42.50;;
45274;SDS011;31019;43.780;25.948;2023-09-08T00:52:46;38.90;;;36.30;;
45274;SDS011;31019;43.780;25.948;2023-09-08T00:55:15;41.08;;;38.67;;
45274;SDS011;31019;43.780;25.948;2023-09-08T00:57:55;43.97;;;41.47;;
45274;SDS011;31019;43.780;25.948;2023-09-08T01:00:23;40.10;;;37.90;;
45274;SDS011;31019;43.780;25.948;2023-09-08T01:02:59;43.97;;;41.58;;
45274;SDS011;31019;43.780;25.948;2023-09-08T01:05:26;44.40;;;41.90;;
45274;SDS011;31019;43.780;25.948;2023-09-08T01:07:53;39.08;;;36.97;;
45274;SDS011;31019;43.780;25.948;2023-09-08T01:10:21;44.03;;;41.83;;
45274;SDS011;31019;43.780;25.948;2023-09-08T01:12:53;45.40;;;42.90;;
45274;SDS011;31019;43.780;25.948;2023-09-08T01:15:21;42.63;;;40.22;;
45274;SDS011;31019;43.780;25.948;2023-09-08T01:20:23;33.85;;;31.63;;
45274;SDS011;31019;43.780;25.948;2023-09-08T01:23:03;40.15;;;38.05;;
45274;SDS011;31019;43.780;25.948;2023-09-08T01:25:40;39.83;;;37.53;;
45274;SDS011;31019;43.780;25.948;2023-09-08T01:28:13;42.00;;;39.70;;
45274;SDS011;31019;43.780;25.948;2023-09-08T01:30:40;37.75;;;35.55;;
45274;SDS011;31019;43.780;25.948;2023-09-08T01:33:08;39.63;;;37.42;;
45274;SDS011;31019;43.780;25.948;2023-09-08T01:35:35;36.05;;;33.78;;
45274;SDS011;31019;43.780;25.948;2023-09-08T01:38:12;39.50;;;37.30;;
45274;SDS011;31019;43.780;25.948;2023-09-08T01:40:41;37.17;;;35.25;;
45274;SDS011;31019;43.780;25.948;2023-09-08T01:43:08;34.75;;;32.75;;
45274;SDS011;31019;43.780;25.948;2023-09-08T01:45:35;32.08;;;30.15;;
45274;SDS011;31019;43.780;25.948;2023-09-08T01:48:02;33.47;;;31.58;;
45274;SDS011;31019;43.780;25.948;2023-09-08T01:50:31;30.45;;;28.65;;
45274;SDS011;31019;43.780;25.948;2023-09-08T01:53:01;29.27;;;27.63;;
45274;SDS011;31019;43.780;25.948;2023-09-08T01:55:28;34.28;;;32.47;;
45274;SDS011;31019;43.780;25.948;2023-09-08T01:57:56;37.55;;;35.55;;
45274;SDS011;31019;43.780;25.948;2023-09-08T02:00:23;37.15;;;35.25;;
45274;SDS011;31019;43.780;25.948;2023-09-08T02:02:50;36.20;;;34.35;;
45274;SDS011;31019;43.780;25.948;2023-09-08T02:05:17;35.45;;;33.75;;
45274;SDS011;31019;43.780;25.948;2023-09-08T02:07:44;44.50;;;42.47;;
45274;SDS011;31019;43.780;25.948;2023-09-08T02:10:10;40.08;;;38.28;;
45274;SDS011;31019;43.780;25.948;2023-09-08T02:12:39;41.22;;;39.42;;
45274;SDS011;31019;43.780;25.948;2023-09-08T02:15:08;36.17;;;34.38;;
45274;SDS011;31019;43.780;25.948;2023-09-08T02:17:36;36.42;;;34.53;;
45274;SDS011;31019;43.780;25.948;2023-09-08T02:20:06;57.55;;;54.95;;
45274;SDS011;31019;43.780;25.948;2023-09-08T02:22:33;40.63;;;38.63;;
45274;SDS011;31019;43.780;25.948;2023-09-08T02:25:00;44.45;;;42.45;;
45274;SDS011;31019;43.780;25.948;2023-09-08T02:27:27;43.85;;;41.63;;
45274;SDS011;31019;43.780;25.948;2023-09-08T02:29:54;40.05;;;38.15;;
45274;SDS011;31019;43.780;25.948;2023-09-08T02:32:22;39.63;;;37.63;;
45274;SDS011;31019;43.780;25.948;2023-09-08T02:34:49;60.63;;;58.13;;
45274;SDS011;31019;43.780;25.948;2023-09-08T02:37:15;49.50;;;47.25;;
45274;SDS011;31019;43.780;25.948;2023-09-08T02:39:44;51.97;;;49.78;;
45274;SDS011;31019;43.780;25.948;2023-09-08T02:42:11;54.25;;;51.90;;
45274;SDS011;31019;43.780;25.948;2023-09-08T02:44:37;49.25;;;47.20;;
45274;SDS011;31019;43.780;25.948;2023-09-08T02:47:04;36.10;;;34.40;;
45274;SDS011;31019;43.780;25.948;2023-09-08T02:49:34;45.35;;;43.35;;
45274;SDS011;31019;43.780;25.948;2023-09-08T02:52:08;54.85;;;52.45;;
45274;SDS011;31019;43.780;25.948;2023-09-08T02:54:51;46.58;;;44.28;;
45274;SDS011;31019;43.780;25.948;2023-09-08T02:57:28;43.55;;;41.38;;
45274;SDS011;31019;43.780;25.948;2023-09-08T02:59:55;45.13;;;42.92;;
45274;SDS011;31019;43.780;25.948;2023-09-08T03:02:28;45.53;;;43.33;;
45274;SDS011;31019;43.780;25.948;2023-09-08T03:05:04;50.03;;;47.63;;
45274;SDS011;31019;43.780;25.948;2023-09-08T03:07:32;47.63;;;45.25;;
45274;SDS011;31019;43.780;25.948;2023-09-08T03:10:02;64.05;;;61.00;;
45274;SDS011;31019;43.780;25.948;2023-09-08T03:12:36;56.38;;;53.58;;
45274;SDS011;31019;43.780;25.948;2023-09-08T03:15:04;56.55;;;53.75;;
45274;SDS011;31019;43.780;25.948;2023-09-08T03:17:31;59.13;;;56.33;;
45274;SDS011;31019;43.780;25.948;2023-09-08T03:19:59;48.78;;;46.28;;
45274;SDS011;31019;43.780;25.948;2023-09-08T03:22:27;54.20;;;51.60;;
45274;SDS011;31019;43.780;25.948;2023-09-08T03:24:54;48.78;;;46.22;;
45274;SDS011;31019;43.780;25.948;2023-09-08T03:27:21;49.95;;;47.45;;
45274;SDS011;31019;43.780;25.948;2023-09-08T03:29:48;48.63;;;46.28;;
45274;SDS011;31019;43.780;25.948;2023-09-08T03:32:24;48.58;;;46.17;;
45274;SDS011;31019;43.780;25.948;2023-09-08T03:34:51;42.45;;;40.17;;
45274;SDS011;31019;43.780;25.948;2023-09-08T03:37:18;56.03;;;53.38;;
45274;SDS011;31019;43.780;25.948;2023-09-08T03:39:46;49.17;;;46.67;;
45274;SDS011;31019;43.780;25.948;2023-09-08T03:42:14;52.63;;;50.03;;
45274;SDS011;31019;43.780;25.948;2023-09-08T03:44:40;41.70;;;39.40;;
45274;SDS011;31019;43.780;25.948;2023-09-08T03:47:07;31.05;;;29.35;;
45274;SDS011;31019;43.780;25.948;2023-09-08T03:49:34;26.50;;;25.00;;
45274;SDS011;31019;43.780;25.948;2023-09-08T03:52:01;28.65;;;27.08;;
45274;SDS011;31019;43.780;25.948;2023-09-08T03:54:28;24.85;;;23.35;;
45274;SDS011;31019;43.780;25.948;2023-09-08T03:56:57;25.27;;;23.67;;
45274;SDS011;31019;43.780;25.948;2023-09-08T03:59:24;25.70;;;24.13;;
45274;SDS011;31019;43.780;25.948;2023-09-08T04:01:53;24.55;;;23.10;;
45274;SDS011;31019;43.780;25.948;2023-09-08T04:04:20;23.52;;;22.23;;
45274;SDS011;31019;43.780;25.948;2023-09-08T04:06:47;22.27;;;20.98;;
45274;SDS011;31019;43.780;25.948;2023-09-08T04:09:14;25.65;;;24.08;;
45274;SDS011;31019;43.780;25.948;2023-09-08T04:11:41;23.40;;;21.98;;
45274;SDS011;31019;43.780;25.948;2023-09-08T04:14:09;23.65;;;22.35;;
45274;SDS011;31019;43.780;25.948;2023-09-08T04:16:36;24.60;;;23.25;;
45274;SDS011;31019;43.780;25.948;2023-09-08T04:19:02;22.90;;;21.60;;
45274;SDS011;31019;43.780;25.948;2023-09-08T04:21:32;22.77;;;21.48;;
45274;SDS011;31019;43.780;25.948;2023-09-08T04:23:59;21.95;;;20.65;;
45274;SDS011;31019;43.780;25.948;2023-09-08T04:26:26;22.17;;;20.88;;
45274;SDS011;31019;43.780;25.948;2023-09-08T04:28:52;21.85;;;20.48;;
45274;SDS011;31019;43.780;25.948;2023-09-08T04:31:21;24.20;;;22.60;;
45274;SDS011;31019;43.780;25.948;2023-09-08T04:33:47;24.20;;;22.70;;
45274;SDS011;31019;43.780;25.948;2023-09-08T04:36:14;22.90;;;21.50;;
45274;SDS011;31019;43.780;25.948;2023-09-08T04:38:41;22.35;;;20.85;;
45274;SDS011;31019;43.780;25.948;2023-09-08T04:41:09;22.85;;;21.45;;
45274;SDS011;31019;43.780;25.948;2023-09-08T04:43:36;24.70;;;23.10;;
45274;SDS011;31019;43.780;25.948;2023-09-08T04:46:03;23.20;;;21.70;;
45274;SDS011;31019;43.780;25.948;2023-09-08T04:48:31;22.80;;;21.40;;
45274;SDS011;31019;43.780;25.948;2023-09-08T04:51:01;23.58;;;22.13;;
45274;SDS011;31019;43.780;25.948;2023-09-08T04:53:28;21.92;;;20.52;;
45274;SDS011;31019;43.780;25.948;2023-09-08T04:55:54;22.90;;;21.40;;
45274;SDS011;31019;43.780;25.948;2023-09-08T04:58:21;23.77;;;22.27;;
45274;SDS011;31019;43.780;25.948;2023-09-08T05:00:48;24.60;;;23.10;;
45274;SDS011;31019;43.780;25.948;2023-09-08T05:03:15;22.70;;;21.23;;
45274;SDS011;31019;43.780;25.948;2023-09-08T05:05:43;19.80;;;18.50;;
45274;SDS011;31019;43.780;25.948;2023-09-08T05:08:11;21.38;;;20.00;;
45274;SDS011;31019;43.780;25.948;2023-09-08T05:10:37;23.80;;;22.30;;
45274;SDS011;31019;43.780;25.948;2023-09-08T05:13:04;22.85;;;21.35;;
45274;SDS011;31019;43.780;25.948;2023-09-08T05:15:31;23.75;;;22.35;;
45274;SDS011;31019;43.780;25.948;2023-09-08T05:17:58;23.38;;;21.67;;
45274;SDS011;31019;43.780;25.948;2023-09-08T05:20:25;22.30;;;20.90;;
45274;SDS011;31019;43.780;25.948;2023-09-08T05:22:54;24.42;;;22.92;;
45274;SDS011;31019;43.780;25.948;2023-09-08T05:25:20;23.40;;;21.90;;
45274;SDS011;31019;43.780;25.948;2023-09-08T05:27:47;24.95;;;23.50;;
45274;SDS011;31019;43.780;25.948;2023-09-08T05:30:15;26.48;;;24.77;;
45274;SDS011;31019;43.780;25.948;2023-09-08T05:32:41;26.52;;;25.02;;
45274;SDS011;31019;43.780;25.948;2023-09-08T05:35:09;25.92;;;24.33;;
45274;SDS011;31019;43.780;25.948;2023-09-08T05:37:36;25.35;;;23.85;;
45274;SDS011;31019;43.780;25.948;2023-09-08T05:40:05;25.70;;;24.10;;
45274;SDS011;31019;43.780;25.948;2023-09-08T05:42:32;23.92;;;22.33;;
45274;SDS011;31019;43.780;25.948;2023-09-08T05:44:59;25.40;;;23.80;;
45274;SDS011;31019;43.780;25.948;2023-09-08T05:47:26;33.30;;;31.25;;
45274;SDS011;31019;43.780;25.948;2023-09-08T05:49:53;27.40;;;25.60;;
45274;SDS011;31019;43.780;25.948;2023-09-08T05:52:20;28.45;;;26.42;;
45274;SDS011;31019;43.780;25.948;2023-09-08T05:54:47;28.20;;;26.52;;
45274;SDS011;31019;43.780;25.948;2023-09-08T05:57:16;26.95;;;25.42;;
45274;SDS011;31019;43.780;25.948;2023-09-08T05:59:44;27.10;;;25.50;;
45274;SDS011;31019;43.780;25.948;2023-09-08T06:02:11;26.38;;;24.63;;
45274;SDS011;31019;43.780;25.948;2023-09-08T06:04:38;26.85;;;25.25;;
45274;SDS011;31019;43.780;25.948;2023-09-08T06:07:04;25.33;;;23.83;;
45274;SDS011;31019;43.780;25.948;2023-09-08T06:09:32;25.30;;;23.80;;
45274;SDS011;31019;43.780;25.948;2023-09-08T06:11:58;28.58;;;27.08;;
45274;SDS011;31019;43.780;25.948;2023-09-08T06:14:29;27.98;;;26.30;;
45274;SDS011;31019;43.780;25.948;2023-09-08T06:16:56;25.08;;;23.48;;
45274;SDS011;31019;43.780;25.948;2023-09-08T06:19:23;25.58;;;23.98;;
45274;SDS011;31019;43.780;25.948;2023-09-08T06:21:50;24.80;;;23.30;;
45274;SDS011;31019;43.780;25.948;2023-09-08T06:24:17;24.75;;;23.25;;
45274;SDS011;31019;43.780;25.948;2023-09-08T06:26:44;23.92;;;22.42;;
45274;SDS011;31019;43.780;25.948;2023-09-08T06:29:11;24.88;;;23.27;;
45274;SDS011;31019;43.780;25.948;2023-09-08T06:31:39;23.92;;;22.42;;
45274;SDS011;31019;43.780;25.948;2023-09-08T06:34:06;24.00;;;22.50;;
45274;SDS011;31019;43.780;25.948;2023-09-08T06:36:32;24.20;;;22.70;;
45274;SDS011;31019;43.780;25.948;2023-09-08T06:39:02;26.15;;;24.65;;
45274;SDS011;31019;43.780;25.948;2023-09-08T06:41:31;25.35;;;23.75;;
45274;SDS011;31019;43.780;25.948;2023-09-08T06:43:58;25.58;;;23.98;;
45274;SDS011;31019;43.780;25.948;2023-09-08T06:46:25;25.15;;;23.55;;
45274;SDS011;31019;43.780;25.948;2023-09-08T06:48:54;26.50;;;24.50;;
45274;SDS011;31019;43.780;25.948;2023-09-08T06:51:20;25.50;;;23.80;;
45274;SDS011;31019;43.780;25.948;2023-09-08T06:53:53;25.55;;;23.95;;
45274;SDS011;31019;43.780;25.948;2023-09-08T06:56:21;25.63;;;24.02;;
45274;SDS011;31019;43.780;25.948;2023-09-08T06:58:48;26.77;;;24.50;;
45274;SDS011;31019;43.780;25.948;2023-09-08T07:01:15;28.40;;;26.70;;
45274;SDS011;31019;43.780;25.948;2023-09-08T07:03:42;23.25;;;21.75;;
45274;SDS011;31019;43.780;25.948;2023-09-08T07:06:11;22.70;;;21.13;;
45274;SDS011;31019;43.780;25.948;2023-09-08T07:08:38;25.95;;;24.25;;
45274;SDS011;31019;43.780;25.948;2023-09-08T07:11:05;24.50;;;22.80;;
45274;SDS011;31019;43.780;25.948;2023-09-08T07:13:32;21.70;;;20.20;;
45274;SDS011;31019;43.780;25.948;2023-09-08T07:15:59;22.38;;;20.88;;
45274;SDS011;31019;43.780;25.948;2023-09-08T07:18:26;21.80;;;20.30;;
45274;SDS011;31019;43.780;25.948;2023-09-08T07:20:53;26.08;;;24.27;;
45274;SDS011;31019;43.780;25.948;2023-09-08T07:23:24;26.50;;;24.80;;
45274;SDS011;31019;43.780;25.948;2023-09-08T07:25:51;25.20;;;23.60;;
45274;SDS011;31019;43.780;25.948;2023-09-08T07:28:18;25.23;;;23.52;;
45274;SDS011;31019;43.780;25.948;2023-09-08T07:30:45;26.00;;;24.20;;
45274;SDS011;31019;43.780;25.948;2023-09-08T07:33:12;25.77;;;24.08;;
45274;SDS011;31019;43.780;25.948;2023-09-08T07:35:39;26.02;;;24.23;;
45274;SDS011;31019;43.780;25.948;2023-09-08T07:38:06;27.15;;;25.25;;
45274;SDS011;31019;43.780;25.948;2023-09-08T07:40:35;25.58;;;23.98;;
45274;SDS011;31019;43.780;25.948;2023-09-08T07:43:02;23.70;;;22.10;;
45274;SDS011;31019;43.780;25.948;2023-09-08T07:45:29;25.00;;;23.40;;
45274;SDS011;31019;43.780;25.948;2023-09-08T07:47:56;24.80;;;22.92;;
45274;SDS011;31019;43.780;25.948;2023-09-08T07:50:24;26.42;;;24.65;;
45274;SDS011;31019;43.780;25.948;2023-09-08T07:52:55;24.25;;;22.65;;
45274;SDS011;31019;43.780;25.948;2023-09-08T07:55:23;24.75;;;23.05;;
45274;SDS011;31019;43.780;25.948;2023-09-08T07:57:53;23.73;;;22.13;;
45274;SDS011;31019;43.780;25.948;2023-09-08T08:00:22;24.95;;;23.02;;
45274;SDS011;31019;43.780;25.948;2023-09-08T08:02:50;26.55;;;24.60;;
45274;SDS011;31019;43.780;25.948;2023-09-08T08:05:18;25.77;;;24.08;;
45274;SDS011;31019;43.780;25.948;2023-09-08T08:07:45;24.10;;;22.40;;
45274;SDS011;31019;43.780;25.948;2023-09-08T08:10:12;23.52;;;21.92;;
45274;SDS011;31019;43.780;25.948;2023-09-08T08:12:42;24.92;;;23.23;;
45274;SDS011;31019;43.780;25.948;2023-09-08T08:15:11;25.13;;;23.45;;
45274;SDS011;31019;43.780;25.948;2023-09-08T08:17:38;23.95;;;22.40;;
45274;SDS011;31019;43.780;25.948;2023-09-08T08:20:09;25.02;;;23.42;;
45274;SDS011;31019;43.780;25.948;2023-09-08T08:22:42;24.23;;;22.63;;
45274;SDS011;31019;43.780;25.948;2023-09-08T08:25:10;24.38;;;22.77;;
45274;SDS011;31019;43.780;25.948;2023-09-08T08:27:38;24.45;;;22.95;;
45274;SDS011;31019;43.780;25.948;2023-09-08T08:30:06;27.13;;;25.50;;
45274;SDS011;31019;43.780;25.948;2023-09-08T08:32:35;24.58;;;22.98;;
45274;SDS011;31019;43.780;25.948;2023-09-08T08:35:02;27.88;;;26.13;;
45274;SDS011;31019;43.780;25.948;2023-09-08T08:37:30;29.23;;;27.00;;
45274;SDS011;31019;43.780;25.948;2023-09-08T08:39:57;27.35;;;25.55;;
45274;SDS011;31019;43.780;25.948;2023-09-08T08:42:29;26.65;;;24.85;;
45274;SDS011;31019;43.780;25.948;2023-09-08T08:44:57;26.98;;;25.17;;
45274;SDS011;31019;43.780;25.948;2023-09-08T08:47:24;27.83;;;26.02;;
45274;SDS011;31019;43.780;25.948;2023-09-08T08:49:55;26.48;;;24.77;;
45274;SDS011;31019;43.780;25.948;2023-09-08T08:52:23;26.85;;;25.15;;
45274;SDS011;31019;43.780;25.948;2023-09-08T08:54:50;26.02;;;24.23;;
45274;SDS011;31019;43.780;25.948;2023-09-08T08:57:17;28.15;;;26.25;;
45274;SDS011;31019;43.780;25.948;2023-09-08T08:59:45;26.65;;;24.75;;
45274;SDS011;31019;43.780;25.948;2023-09-08T09:02:13;26.88;;;24.95;;
45274;SDS011;31019;43.780;25.948;2023-09-08T09:04:41;26.38;;;24.58;;
45274;SDS011;31019;43.780;25.948;2023-09-08T09:07:09;26.95;;;25.15;;
45274;SDS011;31019;43.780;25.948;2023-09-08T09:09:38;26.35;;;24.45;;
45274;SDS011;31019;43.780;25.948;2023-09-08T09:12:05;27.15;;;25.33;;
45274;SDS011;31019;43.780;25.948;2023-09-08T09:14:35;25.95;;;24.05;;
45274;SDS011;31019;43.780;25.948;2023-09-08T09:17:02;26.38;;;24.48;;
45274;SDS011;31019;43.780;25.948;2023-09-08T09:19:32;26.80;;;24.90;;
45274;SDS011;31019;43.780;25.948;2023-09-08T09:22:00;28.27;;;26.38;;
45274;SDS011;31019;43.780;25.948;2023-09-08T09:24:30;30.55;;;28.60;;
45274;SDS011;31019;43.780;25.948;2023-09-08T09:26:59;26.80;;;25.00;;
45274;SDS011;31019;43.780;25.948;2023-09-08T09:29:26;29.77;;;27.90;;
45274;SDS011;31019;43.780;25.948;2023-09-08T09:31:54;30.08;;;28.38;;
45274;SDS011;31019;43.780;25.948;2023-09-08T09:34:23;30.42;;;27.55;;
45274;SDS011;31019;43.780;25.948;2023-09-08T09:36:51;26.98;;;25.08;;
45274;SDS011;31019;43.780;25.948;2023-09-08T09:39:18;26.83;;;24.92;;
45274;SDS011;31019;43.780;25.948;2023-09-08T09:41:47;31.13;;;28.88;;
45274;SDS011;31019;43.780;25.948;2023-09-08T09:44:14;27.42;;;25.52;;
45274;SDS011;31019;43.780;25.948;2023-09-08T09:46:45;24.40;;;22.80;;
45274;SDS011;31019;43.780;25.948;2023-09-08T09:49:12;26.05;;;24.00;;
45274;SDS011;31019;43.780;25.948;2023-09-08T09:51:40;28.25;;;26.35;;
45274;SDS011;31019;43.780;25.948;2023-09-08T09:54:10;25.23;;;23.52;;
45274;SDS011;31019;43.780;25.948;2023-09-08T09:56:38;27.80;;;25.70;;
45274;SDS011;31019;43.780;25.948;2023-09-08T09:59:09;27.70;;;25.70;;
45274;SDS011;31019;43.780;25.948;2023-09-08T10:01:37;29.08;;;27.17;;
45274;SDS011;31019;43.780;25.948;2023-09-08T10:04:06;27.02;;;25.33;;
45274;SDS011;31019;43.780;25.948;2023-09-08T10:06:36;24.80;;;23.10;;
45274;SDS011;31019;43.780;25.948;2023-09-08T10:09:05;25.90;;;24.10;;
45274;SDS011;31019;43.780;25.948;2023-09-08T10:11:40;26.30;;;24.60;;
45274;SDS011;31019;43.780;25.948;2023-09-08T10:14:10;28.10;;;26.10;;
45274;SDS011;31019;43.780;25.948;2023-09-08T10:16:39;25.77;;;24.17;;
45274;SDS011;31019;43.780;25.948;2023-09-08T10:19:07;26.27;;;24.48;;
45274;SDS011;31019;43.780;25.948;2023-09-08T10:21:36;25.83;;;24.13;;
45274;SDS011;31019;43.780;25.948;2023-09-08T10:24:09;27.50;;;25.70;;
45274;SDS011;31019;43.780;25.948;2023-09-08T10:26:43;28.00;;;26.13;;
45274;SDS011;31019;43.780;25.948;2023-09-08T10:29:13;25.27;;;23.48;;
45274;SDS011;31019;43.780;25.948;2023-09-08T10:31:40;26.98;;;25.13;;
45274;SDS011;31019;43.780;25.948;2023-09-08T10:34:08;26.77;;;25.08;;
45274;SDS011;31019;43.780;25.948;2023-09-08T10:36:36;25.35;;;23.65;;
45274;SDS011;31019;43.780;25.948;2023-09-08T10:42:23;24.52;;;22.73;;
45274;SDS011;31019;43.780;25.948;2023-09-08T10:44:59;25.60;;;24.00;;
45274;SDS011;31019;43.780;25.948;2023-09-08T10:47:33;26.92;;;25.23;;
45274;SDS011;31019;43.780;25.948;2023-09-08T10:50:25;27.13;;;25.33;;
45274;SDS011;31019;43.780;25.948;2023-09-08T10:53:03;25.60;;;23.67;;
45274;SDS011;31019;43.780;25.948;2023-09-08T10:55:35;23.42;;;21.83;;
45274;SDS011;31019;43.780;25.948;2023-09-08T10:58:03;35.87;;;27.53;;
45274;SDS011;31019;43.780;25.948;2023-09-08T11:00:43;25.00;;;23.30;;
45274;SDS011;31019;43.780;25.948;2023-09-08T11:03:11;26.73;;;24.92;;
45274;SDS011;31019;43.780;25.948;2023-09-08T11:05:41;26.00;;;24.40;;
45274;SDS011;31019;43.780;25.948;2023-09-08T11:08:09;26.70;;;25.10;;
45274;SDS011;31019;43.780;25.948;2023-09-08T11:10:36;25.35;;;23.65;;
45274;SDS011;31019;43.780;25.948;2023-09-08T11:13:06;24.17;;;22.58;;
45274;SDS011;31019;43.780;25.948;2023-09-08T11:15:33;25.33;;;23.42;;
45274;SDS011;31019;43.780;25.948;2023-09-08T11:18:06;22.98;;;21.38;;
45274;SDS011;31019;43.780;25.948;2023-09-08T11:20:33;24.90;;;23.20;;
45274;SDS011;31019;43.780;25.948;2023-09-08T11:23:00;25.52;;;23.83;;
45274;SDS011;31019;43.780;25.948;2023-09-08T11:25:30;22.65;;;21.05;;
45274;SDS011;31019;43.780;25.948;2023-09-08T11:28:01;22.90;;;21.20;;
45274;SDS011;31019;43.780;25.948;2023-09-08T11:30:28;23.42;;;21.63;;
45274;SDS011;31019;43.780;25.948;2023-09-08T11:32:55;25.02;;;23.13;;
45274;SDS011;31019;43.780;25.948;2023-09-08T11:35:27;22.80;;;21.10;;
45274;SDS011;31019;43.780;25.948;2023-09-08T11:37:58;26.08;;;22.95;;
45274;SDS011;31019;43.780;25.948;2023-09-08T11:40:28;24.70;;;23.00;;
45274;SDS011;31019;43.780;25.948;2023-09-08T11:42:57;22.85;;;20.95;;
45274;SDS011;31019;43.780;25.948;2023-09-08T11:45:24;25.25;;;23.38;;
45274;SDS011;31019;43.780;25.948;2023-09-08T11:47:53;26.35;;;24.55;;
45274;SDS011;31019;43.780;25.948;2023-09-08T11:50:21;26.45;;;24.75;;
45274;SDS011;31019;43.780;25.948;2023-09-08T11:52:50;26.30;;;24.60;;
45274;SDS011;31019;43.780;25.948;2023-09-08T11:55:19;23.73;;;22.13;;
45274;SDS011;31019;43.780;25.948;2023-09-08T11:57:48;25.45;;;23.45;;
45274;SDS011;31019;43.780;25.948;2023-09-08T12:00:16;24.30;;;22.60;;
45274;SDS011;31019;43.780;25.948;2023-09-08T12:02:46;25.42;;;23.63;;
45274;SDS011;31019;43.780;25.948;2023-09-08T12:05:13;23.42;;;21.73;;
45274;SDS011;31019;43.780;25.948;2023-09-08T12:07:45;24.23;;;22.42;;
45274;SDS011;31019;43.780;25.948;2023-09-08T12:12:44;27.15;;;23.90;;
45274;SDS011;31019;43.780;25.948;2023-09-08T12:15:12;25.92;;;23.85;;
45274;SDS011;31019;43.780;25.948;2023-09-08T12:17:57;23.58;;;21.88;;
45274;SDS011;31019;43.780;25.948;2023-09-08T12:20:23;22.65;;;20.95;;
45274;SDS011;31019;43.780;25.948;2023-09-08T12:22:51;22.67;;;21.08;;
45274;SDS011;31019;43.780;25.948;2023-09-08T12:25:19;22.80;;;21.10;;
45274;SDS011;31019;43.780;25.948;2023-09-08T12:27:49;23.33;;;21.83;;
45274;SDS011;31019;43.780;25.948;2023-09-08T12:30:17;21.58;;;20.08;;
45274;SDS011;31019;43.780;25.948;2023-09-08T12:32:45;20.50;;;19.00;;
45274;SDS011;31019;43.780;25.948;2023-09-08T12:35:19;20.90;;;19.40;;
45274;SDS011;31019;43.780;25.948;2023-09-08T12:37:47;22.55;;;20.95;;
45274;SDS011;31019;43.780;25.948;2023-09-08T12:40:20;21.63;;;20.13;;
45274;SDS011;31019;43.780;25.948;2023-09-08T12:42:47;22.90;;;21.30;;
45274;SDS011;31019;43.780;25.948;2023-09-08T12:45:17;24.60;;;22.90;;
45274;SDS011;31019;43.780;25.948;2023-09-08T12:47:51;23.90;;;22.20;;
45274;SDS011;31019;43.780;25.948;2023-09-08T12:50:26;21.98;;;20.38;;
45274;SDS011;31019;43.780;25.948;2023-09-08T12:52:52;22.70;;;21.08;;
45274;SDS011;31019;43.780;25.948;2023-09-08T12:55:21;21.48;;;19.88;;
45274;SDS011;31019;43.780;25.948;2023-09-08T12:57:55;24.33;;;22.52;;
45274;SDS011;31019;43.780;25.948;2023-09-08T13:02:59;24.45;;;22.65;;
45274;SDS011;31019;43.780;25.948;2023-09-08T13:05:27;22.90;;;21.20;;
45274;SDS011;31019;43.780;25.948;2023-09-08T13:07:54;23.05;;;21.35;;
45274;SDS011;31019;43.780;25.948;2023-09-08T13:10:22;23.98;;;22.30;;
45274;SDS011;31019;43.780;25.948;2023-09-08T13:12:49;25.70;;;23.23;;
45274;SDS011;31019;43.780;25.948;2023-09-08T13:15:16;22.10;;;20.50;;
45274;SDS011;31019;43.780;25.948;2023-09-08T13:17:46;24.35;;;22.60;;
45274;SDS011;31019;43.780;25.948;2023-09-08T13:20:13;25.00;;;23.20;;
45274;SDS011;31019;43.780;25.948;2023-09-08T13:22:41;25.65;;;23.85;;
45274;SDS011;31019;43.780;25.948;2023-09-08T13:25:08;25.55;;;23.83;;
45274;SDS011;31019;43.780;25.948;2023-09-08T13:27:37;23.15;;;21.55;;
45274;SDS011;31019;43.780;25.948;2023-09-08T13:30:07;26.40;;;24.70;;
45274;SDS011;31019;43.780;25.948;2023-09-08T13:32:35;22.75;;;21.15;;
45274;SDS011;31019;43.780;25.948;2023-09-08T13:35:02;23.02;;;21.33;;
45274;SDS011;31019;43.780;25.948;2023-09-08T13:37:32;22.80;;;21.20;;
45274;SDS011;31019;43.780;25.948;2023-09-08T13:40:00;22.90;;;21.10;;
45274;SDS011;31019;43.780;25.948;2023-09-08T13:42:28;23.35;;;21.75;;
45274;SDS011;31019;43.780;25.948;2023-09-08T13:44:57;24.13;;;22.42;;
45274;SDS011;31019;43.780;25.948;2023-09-08T13:47:24;22.63;;;20.92;;
45274;SDS011;31019;43.780;25.948;2023-09-08T13:49:50;25.60;;;21.00;;
45274;SDS011;31019;43.780;25.948;2023-09-08T13:52:17;24.35;;;22.60;;
45274;SDS011;31019;43.780;25.948;2023-09-08T13:54:44;23.33;;;21.73;;
45274;SDS011;31019;43.780;25.948;2023-09-08T13:57:11;24.15;;;22.33;;
45274;SDS011;31019;43.780;25.948;2023-09-08T13:59:38;23.60;;;22.00;;
45274;SDS011;31019;43.780;25.948;2023-09-08T14:02:07;22.08;;;20.58;;
45274;SDS011;31019;43.780;25.948;2023-09-08T14:04:34;22.73;;;20.92;;
45274;SDS011;31019;43.780;25.948;2023-09-08T14:07:01;24.23;;;22.63;;
45274;SDS011;31019;43.780;25.948;2023-09-08T14:09:28;23.40;;;21.70;;
45274;SDS011;31019;43.780;25.948;2023-09-08T14:11:55;24.48;;;22.88;;
45274;SDS011;31019;43.780;25.948;2023-09-08T14:14:23;21.38;;;19.88;;
45274;SDS011;31019;43.780;25.948;2023-09-08T14:16:50;22.92;;;21.42;;
45274;SDS011;31019;43.780;25.948;2023-09-08T14:19:18;24.00;;;22.30;;
45274;SDS011;31019;43.780;25.948;2023-09-08T14:21:45;23.20;;;21.50;;
45274;SDS011;31019;43.780;25.948;2023-09-08T14:24:12;22.40;;;20.90;;
45274;SDS011;31019;43.780;25.948;2023-09-08T14:26:39;21.30;;;19.80;;